Sharm El Sheikh, Egypt

6:56 AM EEST on September 17, 2014 (GMT +0300)
Sharm El Sheikh International | Change Station
CLOSE
Current Station
Airport
Location: Sharm El Sheikh,
Elevation: 164 ft
Nearby Weather Stations

Elev 164 ft 27.98 °N, 34.39 °E | Updated 56 minutes ago

Clear
Clear
82 °F
Feels Like 86 °F
N
12
Wind Variable Wind from North

Today
High -- | Low -- °F
--% Chance of Precip.
Yesterday
High -- | Low -- °F
Precip. -- in
6:28 AM 6:45 PM
Last Quarter, 40% visible
Pressure 29.77 in
Visibility -9999.0 miles
Clouds
Heat Index 86 °F
Dew Point 70 °F
Humidity 66%
Rainfall 0.00 in
Snow Depth Not available.
UV Not available.
Pollen Not available.
Air Quality Not available.
Flu Activity Not available.
METAR HESH 170300Z 36010KT CAVOK 28/21 Q1008 NOSIG

More Conditions Fewer Conditions

Pressure 29.77 in
Visibility -9999.0 miles
Clouds
Heat Index 86 °F
Dew Point 70 °F
Humidity 66%
Rainfall 0.00 in
Snow Depth Not available.
UV Not available.
Pollen Not available.
Air Quality Not available.
Flu Activity Not available.
METAR HESH 170300Z 36010KT CAVOK 28/21 Q1008 NOSIG

More Conditions Fewer Conditions

10-Day Weather Forecast

Almanac

Astronomy

Sep. 17, 2014 Rise Set
Actual Time 6:28 AM EEST 6:45 PM EEST
Civil Twilight 6:04 AM EEST 7:08 PM EEST
Nautical Twilight 5:37 AM EEST 7:36 PM EEST
Astronomical Twilight 5:09 AM EEST 8:03 PM EEST
Moon 12:32 AM EEST 2:18 PM EEST
Length of Visible Light 13h 03m
Length of Day
12h 16m
Tomorrow will be 1m 39s shorter.
Last Quarter, 40% of the Moon is Illuminated
Sep 16
Last Quarter
Sep 24
New
Oct 1
First Quarter
Oct 8
Full
Oct 15
Last Quarter

Yesterday's Extremes

Country Highs Country Lows

Community

WunderPhotos

Upload Photos

1,753,956 photos uploaded!

Nearby

Snow Depth

Not available.

Earthquake Activity

City Distance Mag. Time & Date
No recent earthquake activity has been reported nearby.
Minimum magnitude displayed is 2.5.

Coastal Water Temperatures

Place Temperature
No Stations Reporting

Nearby Weather Stations